sensor_id;sensor_type;location;lat;lon;timestamp;temperature;humidity
78514;SHT31;67814;51.976;5.810;2024-01-30T00:02:23;8.8;70.2
78514;SHT31;67814;51.976;5.810;2024-01-30T00:04:52;8.8;70.2
78514;SHT31;67814;51.976;5.810;2024-01-30T00:07:20;8.8;70.3
78514;SHT31;67814;51.976;5.810;2024-01-30T00:09:51;8.8;70.4
78514;SHT31;67814;51.976;5.810;2024-01-30T00:12:19;8.8;70.1
78514;SHT31;67814;51.976;5.810;2024-01-30T00:14:48;8.8;69.7
78514;SHT31;67814;51.976;5.810;2024-01-30T00:17:16;8.7;69.8
78514;SHT31;67814;51.976;5.810;2024-01-30T00:19:47;8.7;69.6
78514;SHT31;67814;51.976;5.810;2024-01-30T00:22:15;8.7;69.8
78514;SHT31;67814;51.976;5.810;2024-01-30T00:24:44;8.6;69.6
78514;SHT31;67814;51.976;5.810;2024-01-30T00:27:12;8.6;69.8
78514;SHT31;67814;51.976;5.810;2024-01-30T00:29:41;8.6;69.6
78514;SHT31;67814;51.976;5.810;2024-01-30T00:32:10;8.5;69.8
78514;SHT31;67814;51.976;5.810;2024-01-30T00:34:38;8.5;69.8
78514;SHT31;67814;51.976;5.810;2024-01-30T00:37:07;8.5;70.1
78514;SHT31;67814;51.976;5.810;2024-01-30T00:39:36;8.4;70.2
78514;SHT31;67814;51.976;5.810;2024-01-30T00:42:05;8.4;70.3
78514;SHT31;67814;51.976;5.810;2024-01-30T00:44:34;8.4;70.4
78514;SHT31;67814;51.976;5.810;2024-01-30T00:47:03;8.4;70.6
78514;SHT31;67814;51.976;5.810;2024-01-30T00:49:32;8.3;70.7
78514;SHT31;67814;51.976;5.810;2024-01-30T00:52:01;8.3;71.0
78514;SHT31;67814;51.976;5.810;2024-01-30T00:54:30;8.3;70.4
78514;SHT31;67814;51.976;5.810;2024-01-30T00:56:59;8.3;70.4
78514;SHT31;67814;51.976;5.810;2024-01-30T00:59:27;8.3;70.7
78514;SHT31;67814;51.976;5.810;2024-01-30T01:01:56;8.2;70.4
78514;SHT31;67814;51.976;5.810;2024-01-30T01:04:25;8.2;70.9
78514;SHT31;67814;51.976;5.810;2024-01-30T01:06:53;8.2;71.0
78514;SHT31;67814;51.976;5.810;2024-01-30T01:09:22;8.2;71.5
78514;SHT31;67814;51.976;5.810;2024-01-30T01:11:51;8.2;72.1
78514;SHT31;67814;51.976;5.810;2024-01-30T01:14:19;8.2;72.1
78514;SHT31;67814;51.976;5.810;2024-01-30T01:16:48;8.1;71.4
78514;SHT31;67814;51.976;5.810;2024-01-30T01:19:16;8.1;71.5
78514;SHT31;67814;51.976;5.810;2024-01-30T01:21:45;8.1;71.3
78514;SHT31;67814;51.976;5.810;2024-01-30T01:24:14;8.1;71.3
78514;SHT31;67814;51.976;5.810;2024-01-30T01:26:42;8.1;71.3
78514;SHT31;67814;51.976;5.810;2024-01-30T01:29:11;8.1;71.0
78514;SHT31;67814;51.976;5.810;2024-01-30T01:31:40;8.1;71.0
78514;SHT31;67814;51.976;5.810;2024-01-30T01:34:10;8.1;71.0
78514;SHT31;67814;51.976;5.810;2024-01-30T01:36:39;8.1;71.2
78514;SHT31;67814;51.976;5.810;2024-01-30T01:39:08;8.1;71.1
78514;SHT31;67814;51.976;5.810;2024-01-30T01:41:39;8.1;71.1
78514;SHT31;67814;51.976;5.810;2024-01-30T01:44:08;8.1;71.1
78514;SHT31;67814;51.976;5.810;2024-01-30T01:46:37;8.0;70.8
78514;SHT31;67814;51.976;5.810;2024-01-30T01:49:08;8.0;70.9
78514;SHT31;67814;51.976;5.810;2024-01-30T01:51:38;8.0;70.7
78514;SHT31;67814;51.976;5.810;2024-01-30T01:54:08;8.0;70.8
78514;SHT31;67814;51.976;5.810;2024-01-30T01:56:37;8.0;71.1
78514;SHT31;67814;51.976;5.810;2024-01-30T01:59:07;8.0;70.8
78514;SHT31;67814;51.976;5.810;2024-01-30T02:01:37;8.0;71.1
78514;SHT31;67814;51.976;5.810;2024-01-30T02:04:07;8.0;71.9
78514;SHT31;67814;51.976;5.810;2024-01-30T02:06:39;8.0;72.1
78514;SHT31;67814;51.976;5.810;2024-01-30T02:09:07;8.0;71.8
78514;SHT31;67814;51.976;5.810;2024-01-30T02:11:37;8.0;72.4
78514;SHT31;67814;51.976;5.810;2024-01-30T02:14:07;8.0;72.5
78514;SHT31;67814;51.976;5.810;2024-01-30T02:16:36;8.0;73.1
78514;SHT31;67814;51.976;5.810;2024-01-30T02:19:05;8.0;72.8
78514;SHT31;67814;51.976;5.810;2024-01-30T02:21:34;8.0;72.4
78514;SHT31;67814;51.976;5.810;2024-01-30T02:24:03;8.1;72.6
78514;SHT31;67814;51.976;5.810;2024-01-30T02:26:32;8.1;72.3
78514;SHT31;67814;51.976;5.810;2024-01-30T02:29:00;8.1;71.7
78514;SHT31;67814;51.976;5.810;2024-01-30T02:31:29;8.1;71.7
78514;SHT31;67814;51.976;5.810;2024-01-30T02:33:58;8.1;71.9
78514;SHT31;67814;51.976;5.810;2024-01-30T02:36:26;8.2;71.7
78514;SHT31;67814;51.976;5.810;2024-01-30T02:38:55;8.2;72.5
78514;SHT31;67814;51.976;5.810;2024-01-30T02:41:24;8.2;71.8
78514;SHT31;67814;51.976;5.810;2024-01-30T02:43:52;8.2;71.4
78514;SHT31;67814;51.976;5.810;2024-01-30T02:46:21;8.2;71.3
78514;SHT31;67814;51.976;5.810;2024-01-30T02:48:50;8.2;71.4
78514;SHT31;67814;51.976;5.810;2024-01-30T02:51:19;8.2;71.1
78514;SHT31;67814;51.976;5.810;2024-01-30T02:53:47;8.2;71.1
78514;SHT31;67814;51.976;5.810;2024-01-30T02:56:16;8.2;70.9
78514;SHT31;67814;51.976;5.810;2024-01-30T02:58:44;8.2;70.9
78514;SHT31;67814;51.976;5.810;2024-01-30T03:01:13;8.2;71.4
78514;SHT31;67814;51.976;5.810;2024-01-30T03:03:44;8.2;71.8
78514;SHT31;67814;51.976;5.810;2024-01-30T03:06:12;8.2;72.0
78514;SHT31;67814;51.976;5.810;2024-01-30T03:08:43;8.2;73.1
78514;SHT31;67814;51.976;5.810;2024-01-30T03:11:12;8.2;73.2
78514;SHT31;67814;51.976;5.810;2024-01-30T03:13:41;8.2;73.9
78514;SHT31;67814;51.976;5.810;2024-01-30T03:16:10;8.3;73.3
78514;SHT31;67814;51.976;5.810;2024-01-30T03:18:38;8.3;72.6
78514;SHT31;67814;51.976;5.810;2024-01-30T03:21:09;8.3;72.1
78514;SHT31;67814;51.976;5.810;2024-01-30T03:23:38;8.3;72.0
78514;SHT31;67814;51.976;5.810;2024-01-30T03:26:08;8.3;72.1
78514;SHT31;67814;51.976;5.810;2024-01-30T03:28:39;8.4;71.9
78514;SHT31;67814;51.976;5.810;2024-01-30T03:31:07;8.4;71.6
78514;SHT31;67814;51.976;5.810;2024-01-30T03:33:38;8.4;71.8
78514;SHT31;67814;51.976;5.810;2024-01-30T03:36:08;8.4;71.6
78514;SHT31;67814;51.976;5.810;2024-01-30T03:38:37;8.4;71.7
78514;SHT31;67814;51.976;5.810;2024-01-30T03:41:07;8.4;72.2
78514;SHT31;67814;51.976;5.810;2024-01-30T03:43:36;8.4;71.5
78514;SHT31;67814;51.976;5.810;2024-01-30T03:46:05;8.4;72.1
78514;SHT31;67814;51.976;5.810;2024-01-30T03:48:36;8.4;72.8
78514;SHT31;67814;51.976;5.810;2024-01-30T03:51:06;8.4;73.4
78514;SHT31;67814;51.976;5.810;2024-01-30T03:53:34;8.4;72.8
78514;SHT31;67814;51.976;5.810;2024-01-30T03:56:06;8.4;72.7
78514;SHT31;67814;51.976;5.810;2024-01-30T03:58:35;8.5;72.2
78514;SHT31;67814;51.976;5.810;2024-01-30T04:01:03;8.5;72.4
78514;SHT31;67814;51.976;5.810;2024-01-30T04:03:32;8.5;71.9
78514;SHT31;67814;51.976;5.810;2024-01-30T04:06:01;8.5;71.7
78514;SHT31;67814;51.976;5.810;2024-01-30T04:08:29;8.5;71.9
78514;SHT31;67814;51.976;5.810;2024-01-30T04:10:59;8.5;71.6
78514;SHT31;67814;51.976;5.810;2024-01-30T04:13:32;8.6;72.0
78514;SHT31;67814;51.976;5.810;2024-01-30T04:16:02;8.6;71.2
78514;SHT31;67814;51.976;5.810;2024-01-30T04:18:31;8.6;71.6
78514;SHT31;67814;51.976;5.810;2024-01-30T04:21:00;8.6;71.6
78514;SHT31;67814;51.976;5.810;2024-01-30T04:23:29;8.6;71.9
78514;SHT31;67814;51.976;5.810;2024-01-30T04:25:57;8.6;71.5
78514;SHT31;67814;51.976;5.810;2024-01-30T04:28:26;8.6;71.8
78514;SHT31;67814;51.976;5.810;2024-01-30T04:30:55;8.6;72.1
78514;SHT31;67814;51.976;5.810;2024-01-30T04:33:23;8.6;72.3
78514;SHT31;67814;51.976;5.810;2024-01-30T04:35:52;8.6;72.1
78514;SHT31;67814;51.976;5.810;2024-01-30T04:38:21;8.6;72.1
78514;SHT31;67814;51.976;5.810;2024-01-30T04:40:49;8.7;72.7
78514;SHT31;67814;51.976;5.810;2024-01-30T04:43:18;8.7;72.3
78514;SHT31;67814;51.976;5.810;2024-01-30T04:45:47;8.7;73.1
78514;SHT31;67814;51.976;5.810;2024-01-30T04:48:15;8.7;73.1
78514;SHT31;67814;51.976;5.810;2024-01-30T04:50:44;8.8;72.9
78514;SHT31;67814;51.976;5.810;2024-01-30T04:53:12;8.8;72.6
78514;SHT31;67814;51.976;5.810;2024-01-30T04:55:43;8.8;73.4
78514;SHT31;67814;51.976;5.810;2024-01-30T04:58:12;8.8;73.4
78514;SHT31;67814;51.976;5.810;2024-01-30T05:00:40;8.9;72.4
78514;SHT31;67814;51.976;5.810;2024-01-30T05:03:09;8.9;72.5
78514;SHT31;67814;51.976;5.810;2024-01-30T05:05:37;8.9;72.4
78514;SHT31;67814;51.976;5.810;2024-01-30T05:08:06;9.0;72.2
78514;SHT31;67814;51.976;5.810;2024-01-30T05:10:35;9.0;72.2
78514;SHT31;67814;51.976;5.810;2024-01-30T05:13:04;9.0;71.7
78514;SHT31;67814;51.976;5.810;2024-01-30T05:15:32;9.0;71.3
78514;SHT31;67814;51.976;5.810;2024-01-30T05:18:01;9.1;71.9
78514;SHT31;67814;51.976;5.810;2024-01-30T05:20:30;9.1;71.7
78514;SHT31;67814;51.976;5.810;2024-01-30T05:22:58;9.1;71.4
78514;SHT31;67814;51.976;5.810;2024-01-30T05:25:27;9.1;71.5
78514;SHT31;67814;51.976;5.810;2024-01-30T05:27:55;9.1;71.3
78514;SHT31;67814;51.976;5.810;2024-01-30T05:30:24;9.1;71.3
78514;SHT31;67814;51.976;5.810;2024-01-30T05:32:52;9.1;71.6
78514;SHT31;67814;51.976;5.810;2024-01-30T05:35:21;9.2;71.8
78514;SHT31;67814;51.976;5.810;2024-01-30T05:37:50;9.2;72.1
78514;SHT31;67814;51.976;5.810;2024-01-30T05:40:19;9.2;71.6
78514;SHT31;67814;51.976;5.810;2024-01-30T05:42:48;9.2;72.3
78514;SHT31;67814;51.976;5.810;2024-01-30T05:45:16;9.2;72.4
78514;SHT31;67814;51.976;5.810;2024-01-30T05:47:45;9.2;72.2
78514;SHT31;67814;51.976;5.810;2024-01-30T05:50:16;9.3;72.0
78514;SHT31;67814;51.976;5.810;2024-01-30T05:52:46;9.3;71.8
78514;SHT31;67814;51.976;5.810;2024-01-30T05:55:15;9.3;72.1
78514;SHT31;67814;51.976;5.810;2024-01-30T05:57:43;9.3;72.3
78514;SHT31;67814;51.976;5.810;2024-01-30T06:00:12;9.4;72.2
78514;SHT31;67814;51.976;5.810;2024-01-30T06:02:41;9.4;71.9
78514;SHT31;67814;51.976;5.810;2024-01-30T06:05:10;9.4;72.0
78514;SHT31;67814;51.976;5.810;2024-01-30T06:07:39;9.4;72.2
78514;SHT31;67814;51.976;5.810;2024-01-30T06:10:10;9.5;71.9
78514;SHT31;67814;51.976;5.810;2024-01-30T06:12:39;9.5;72.3
78514;SHT31;67814;51.976;5.810;2024-01-30T06:15:08;9.5;71.9
78514;SHT31;67814;51.976;5.810;2024-01-30T06:17:39;9.6;71.9
78514;SHT31;67814;51.976;5.810;2024-01-30T06:20:10;9.6;71.8
78514;SHT31;67814;51.976;5.810;2024-01-30T06:22:39;9.6;72.6
78514;SHT31;67814;51.976;5.810;2024-01-30T06:25:10;9.6;72.2
78514;SHT31;67814;51.976;5.810;2024-01-30T06:27:38;9.7;72.3
78514;SHT31;67814;51.976;5.810;2024-01-30T06:30:07;9.7;72.1
78514;SHT31;67814;51.976;5.810;2024-01-30T06:32:37;9.7;72.0
78514;SHT31;67814;51.976;5.810;2024-01-30T06:35:08;9.7;72.3
78514;SHT31;67814;51.976;5.810;2024-01-30T06:37:37;9.8;72.1
78514;SHT31;67814;51.976;5.810;2024-01-30T06:40:06;9.8;71.7
78514;SHT31;67814;51.976;5.810;2024-01-30T06:42:35;9.8;71.9
78514;SHT31;67814;51.976;5.810;2024-01-30T06:45:04;9.8;71.4
78514;SHT31;67814;51.976;5.810;2024-01-30T06:47:34;9.9;71.2
78514;SHT31;67814;51.976;5.810;2024-01-30T06:50:03;9.9;71.4
78514;SHT31;67814;51.976;5.810;2024-01-30T06:52:31;9.9;71.5
78514;SHT31;67814;51.976;5.810;2024-01-30T06:55:00;9.9;71.7
78514;SHT31;67814;51.976;5.810;2024-01-30T06:57:29;9.9;71.7
78514;SHT31;67814;51.976;5.810;2024-01-30T06:59:58;9.9;71.9
78514;SHT31;67814;51.976;5.810;2024-01-30T07:02:26;9.9;72.0
78514;SHT31;67814;51.976;5.810;2024-01-30T07:04:55;10.0;72.0
78514;SHT31;67814;51.976;5.810;2024-01-30T07:07:24;10.0;71.7
78514;SHT31;67814;51.976;5.810;2024-01-30T07:09:53;10.0;71.8
78514;SHT31;67814;51.976;5.810;2024-01-30T07:12:23;10.0;72.0
78514;SHT31;67814;51.976;5.810;2024-01-30T07:14:52;10.0;72.0
78514;SHT31;67814;51.976;5.810;2024-01-30T07:17:24;10.0;71.7
78514;SHT31;67814;51.976;5.810;2024-01-30T07:19:53;10.0;72.0
78514;SHT31;67814;51.976;5.810;2024-01-30T07:22:22;10.1;72.2
78514;SHT31;67814;51.976;5.810;2024-01-30T07:24:53;10.1;72.2
78514;SHT31;67814;51.976;5.810;2024-01-30T07:27:23;10.1;73.2
78514;SHT31;67814;51.976;5.810;2024-01-30T07:29:51;10.1;72.8
78514;SHT31;67814;51.976;5.810;2024-01-30T07:32:20;10.2;72.9
78514;SHT31;67814;51.976;5.810;2024-01-30T07:34:49;10.2;72.9
78514;SHT31;67814;51.976;5.810;2024-01-30T07:37:17;10.2;72.6
78514;SHT31;67814;51.976;5.810;2024-01-30T07:39:47;10.3;72.5
78514;SHT31;67814;51.976;5.810;2024-01-30T07:42:18;10.3;72.5
78514;SHT31;67814;51.976;5.810;2024-01-30T07:44:46;10.3;72.4
78514;SHT31;67814;51.976;5.810;2024-01-30T07:47:15;10.4;72.5
78514;SHT31;67814;51.976;5.810;2024-01-30T07:49:43;10.4;72.7
78514;SHT31;67814;51.976;5.810;2024-01-30T07:52:12;10.4;72.6
78514;SHT31;67814;51.976;5.810;2024-01-30T07:54:50;10.5;72.4
78514;SHT31;67814;51.976;5.810;2024-01-30T07:57:19;10.5;72.3
78514;SHT31;67814;51.976;5.810;2024-01-30T07:59:47;10.5;72.6
78514;SHT31;67814;51.976;5.810;2024-01-30T08:02:16;10.6;72.4
78514;SHT31;67814;51.976;5.810;2024-01-30T08:04:45;10.6;72.4
78514;SHT31;67814;51.976;5.810;2024-01-30T08:07:15;10.7;72.4
78514;SHT31;67814;51.976;5.810;2024-01-30T08:09:44;10.7;72.3
78514;SHT31;67814;51.976;5.810;2024-01-30T08:12:13;10.8;72.2
78514;SHT31;67814;51.976;5.810;2024-01-30T08:14:42;10.8;72.1
78514;SHT31;67814;51.976;5.810;2024-01-30T08:17:11;10.9;72.0
78514;SHT31;67814;51.976;5.810;2024-01-30T08:19:39;10.9;71.8
78514;SHT31;67814;51.976;5.810;2024-01-30T08:22:08;11.0;71.9
78514;SHT31;67814;51.976;5.810;2024-01-30T08:24:38;11.0;71.7
78514;SHT31;67814;51.976;5.810;2024-01-30T08:27:07;11.1;71.5
78514;SHT31;67814;51.976;5.810;2024-01-30T08:29:36;11.2;71.3
78514;SHT31;67814;51.976;5.810;2024-01-30T08:32:06;11.2;71.2
78514;SHT31;67814;51.976;5.810;2024-01-30T08:34:35;11.3;71.1
78514;SHT31;67814;51.976;5.810;2024-01-30T08:37:04;11.3;71.0
78514;SHT31;67814;51.976;5.810;2024-01-30T08:39:33;11.4;70.7
78514;SHT31;67814;51.976;5.810;2024-01-30T08:42:01;11.4;70.9
78514;SHT31;67814;51.976;5.810;2024-01-30T08:44:30;11.5;70.7
78514;SHT31;67814;51.976;5.810;2024-01-30T08:46:59;11.5;70.8
78514;SHT31;67814;51.976;5.810;2024-01-30T08:49:27;11.6;70.5
78514;SHT31;67814;51.976;5.810;2024-01-30T08:51:56;11.6;70.3
78514;SHT31;67814;51.976;5.810;2024-01-30T08:54:25;11.6;70.2
78514;SHT31;67814;51.976;5.810;2024-01-30T08:56:53;11.7;70.2
78514;SHT31;67814;51.976;5.810;2024-01-30T08:59:23;11.7;70.1
78514;SHT31;67814;51.976;5.810;2024-01-30T09:01:51;11.8;70.2
78514;SHT31;67814;51.976;5.810;2024-01-30T09:04:21;11.8;70.2
78514;SHT31;67814;51.976;5.810;2024-01-30T09:06:50;11.8;70.0
78514;SHT31;67814;51.976;5.810;2024-01-30T09:09:21;11.9;70.1
78514;SHT31;67814;51.976;5.810;2024-01-30T09:11:49;11.9;69.7
78514;SHT31;67814;51.976;5.810;2024-01-30T09:14:18;12.0;69.4
78514;SHT31;67814;51.976;5.810;2024-01-30T09:16:47;12.0;69.3
78514;SHT31;67814;51.976;5.810;2024-01-30T09:19:16;12.1;69.4
78514;SHT31;67814;51.976;5.810;2024-01-30T09:21:45;12.1;69.3
78514;SHT31;67814;51.976;5.810;2024-01-30T09:24:13;12.1;69.2
78514;SHT31;67814;51.976;5.810;2024-01-30T09:26:42;12.2;69.2
78514;SHT31;67814;51.976;5.810;2024-01-30T09:29:10;12.2;69.1
78514;SHT31;67814;51.976;5.810;2024-01-30T09:31:39;12.2;69.2
78514;SHT31;67814;51.976;5.810;2024-01-30T09:34:07;12.3;69.2
78514;SHT31;67814;51.976;5.810;2024-01-30T09:36:36;12.3;69.1
78514;SHT31;67814;51.976;5.810;2024-01-30T09:39:05;12.3;68.9
78514;SHT31;67814;51.976;5.810;2024-01-30T09:41:45;12.4;68.9
78514;SHT31;67814;51.976;5.810;2024-01-30T09:44:16;12.4;68.9
78514;SHT31;67814;51.976;5.810;2024-01-30T09:46:47;12.4;68.9
78514;SHT31;67814;51.976;5.810;2024-01-30T09:49:16;12.4;69.1
78514;SHT31;67814;51.976;5.810;2024-01-30T09:51:50;12.4;69.1
78514;SHT31;67814;51.976;5.810;2024-01-30T09:54:19;12.5;69.1
78514;SHT31;67814;51.976;5.810;2024-01-30T09:56:49;12.5;69.1
78514;SHT31;67814;51.976;5.810;2024-01-30T09:59:18;12.5;69.2
78514;SHT31;67814;51.976;5.810;2024-01-30T10:01:47;12.6;69.1
78514;SHT31;67814;51.976;5.810;2024-01-30T10:04:16;12.6;69.1
78514;SHT31;67814;51.976;5.810;2024-01-30T10:06:44;12.6;69.2
78514;SHT31;67814;51.976;5.810;2024-01-30T10:09:13;12.7;69.2
78514;SHT31;67814;51.976;5.810;2024-01-30T10:11:42;12.7;69.2
78514;SHT31;67814;51.976;5.810;2024-01-30T10:14:11;12.7;69.1
78514;SHT31;67814;51.976;5.810;2024-01-30T10:16:40;12.8;69.0
78514;SHT31;67814;51.976;5.810;2024-01-30T10:19:08;12.8;69.2
78514;SHT31;67814;51.976;5.810;2024-01-30T10:21:37;12.8;69.1
78514;SHT31;67814;51.976;5.810;2024-01-30T10:24:06;12.9;69.1
78514;SHT31;67814;51.976;5.810;2024-01-30T10:26:38;12.9;69.3
78514;SHT31;67814;51.976;5.810;2024-01-30T10:29:06;12.9;69.2
78514;SHT31;67814;51.976;5.810;2024-01-30T10:31:35;12.9;69.2
78514;SHT31;67814;51.976;5.810;2024-01-30T10:34:03;13.0;69.2
78514;SHT31;67814;51.976;5.810;2024-01-30T10:36:40;13.0;69.0
78514;SHT31;67814;51.976;5.810;2024-01-30T10:39:10;13.0;69.0
78514;SHT31;67814;51.976;5.810;2024-01-30T10:41:43;13.0;69.0
78514;SHT31;67814;51.976;5.810;2024-01-30T10:44:18;13.1;68.9
78514;SHT31;67814;51.976;5.810;2024-01-30T10:46:56;13.1;68.9
78514;SHT31;67814;51.976;5.810;2024-01-30T10:49:27;13.1;68.7
78514;SHT31;67814;51.976;5.810;2024-01-30T10:51:57;13.1;68.7
78514;SHT31;67814;51.976;5.810;2024-01-30T10:54:27;13.2;68.5
78514;SHT31;67814;51.976;5.810;2024-01-30T10:57:00;13.2;68.3
78514;SHT31;67814;51.976;5.810;2024-01-30T10:59:32;13.2;68.3
78514;SHT31;67814;51.976;5.810;2024-01-30T11:02:02;13.3;68.4
78514;SHT31;67814;51.976;5.810;2024-01-30T11:04:37;13.3;68.4
78514;SHT31;67814;51.976;5.810;2024-01-30T11:07:16;13.4;68.5
78514;SHT31;67814;51.976;5.810;2024-01-30T11:09:53;13.4;68.5
78514;SHT31;67814;51.976;5.810;2024-01-30T11:12:27;13.5;68.9
78514;SHT31;67814;51.976;5.810;2024-01-30T11:15:07;13.5;68.7
78514;SHT31;67814;51.976;5.810;2024-01-30T11:17:44;13.6;68.7
78514;SHT31;67814;51.976;5.810;2024-01-30T11:20:15;13.6;68.1
78514;SHT31;67814;51.976;5.810;2024-01-30T11:22:48;13.7;67.9
78514;SHT31;67814;51.976;5.810;2024-01-30T11:25:19;13.8;67.7
78514;SHT31;67814;51.976;5.810;2024-01-30T11:27:50;13.8;67.3
78514;SHT31;67814;51.976;5.810;2024-01-30T11:30:23;13.9;67.1
78514;SHT31;67814;51.976;5.810;2024-01-30T11:33:06;13.9;66.8
78514;SHT31;67814;51.976;5.810;2024-01-30T11:35:37;13.9;66.4
78514;SHT31;67814;51.976;5.810;2024-01-30T11:38:07;13.9;66.2
78514;SHT31;67814;51.976;5.810;2024-01-30T11:40:37;14.0;66.3
78514;SHT31;67814;51.976;5.810;2024-01-30T11:43:08;14.0;66.2
78514;SHT31;67814;51.976;5.810;2024-01-30T11:45:39;14.0;66.2
78514;SHT31;67814;51.976;5.810;2024-01-30T11:48:11;14.0;66.1
78514;SHT31;67814;51.976;5.810;2024-01-30T11:50:43;14.0;66.3
78514;SHT31;67814;51.976;5.810;2024-01-30T11:53:13;14.1;66.0
78514;SHT31;67814;51.976;5.810;2024-01-30T11:55:41;14.1;65.9
78514;SHT31;67814;51.976;5.810;2024-01-30T11:58:12;14.1;65.8
78514;SHT31;67814;51.976;5.810;2024-01-30T12:00:42;14.1;65.3
78514;SHT31;67814;51.976;5.810;2024-01-30T12:03:11;14.1;65.2
78514;SHT31;67814;51.976;5.810;2024-01-30T12:05:40;14.2;64.6
78514;SHT31;67814;51.976;5.810;2024-01-30T12:08:14;14.2;64.4
78514;SHT31;67814;51.976;5.810;2024-01-30T12:10:42;14.2;64.4
78514;SHT31;67814;51.976;5.810;2024-01-30T12:13:13;14.2;64.3
78514;SHT31;67814;51.976;5.810;2024-01-30T12:15:44;14.3;64.7
78514;SHT31;67814;51.976;5.810;2024-01-30T12:18:13;14.3;64.3
78514;SHT31;67814;51.976;5.810;2024-01-30T12:20:41;14.3;64.3
78514;SHT31;67814;51.976;5.810;2024-01-30T12:23:12;14.4;63.4
78514;SHT31;67814;51.976;5.810;2024-01-30T12:25:41;14.4;62.8
78514;SHT31;67814;51.976;5.810;2024-01-30T12:28:10;14.5;62.4
78514;SHT31;67814;51.976;5.810;2024-01-30T12:30:39;14.5;61.7
78514;SHT31;67814;51.976;5.810;2024-01-30T12:33:09;14.5;61.7
78514;SHT31;67814;51.976;5.810;2024-01-30T12:35:38;14.4;60.7
78514;SHT31;67814;51.976;5.810;2024-01-30T12:38:06;14.4;60.6
78514;SHT31;67814;51.976;5.810;2024-01-30T12:40:35;14.3;60.4
78514;SHT31;67814;51.976;5.810;2024-01-30T12:43:04;14.2;60.5
78514;SHT31;67814;51.976;5.810;2024-01-30T12:45:33;14.1;61.1
78514;SHT31;67814;51.976;5.810;2024-01-30T12:48:02;13.9;61.2
78514;SHT31;67814;51.976;5.810;2024-01-30T12:50:31;13.9;62.0
78514;SHT31;67814;51.976;5.810;2024-01-30T12:53:00;13.8;62.0
78514;SHT31;67814;51.976;5.810;2024-01-30T12:55:28;13.7;61.9
78514;SHT31;67814;51.976;5.810;2024-01-30T12:57:57;13.7;62.0
78514;SHT31;67814;51.976;5.810;2024-01-30T13:00:25;13.6;62.2
78514;SHT31;67814;51.976;5.810;2024-01-30T13:02:54;13.6;61.9
78514;SHT31;67814;51.976;5.810;2024-01-30T13:05:23;13.6;62.2
78514;SHT31;67814;51.976;5.810;2024-01-30T13:07:52;13.6;62.6
78514;SHT31;67814;51.976;5.810;2024-01-30T13:10:23;13.6;62.6
78514;SHT31;67814;51.976;5.810;2024-01-30T13:12:52;13.6;61.9
78514;SHT31;67814;51.976;5.810;2024-01-30T13:15:20;13.6;61.4
78514;SHT31;67814;51.976;5.810;2024-01-30T13:17:49;13.6;61.3
78514;SHT31;67814;51.976;5.810;2024-01-30T13:20:22;13.6;61.3
78514;SHT31;67814;51.976;5.810;2024-01-30T13:22:51;13.6;61.1
78514;SHT31;67814;51.976;5.810;2024-01-30T13:25:20;13.6;59.9
78514;SHT31;67814;51.976;5.810;2024-01-30T13:27:48;13.6;59.7
78514;SHT31;67814;51.976;5.810;2024-01-30T13:30:19;13.6;59.0
78514;SHT31;67814;51.976;5.810;2024-01-30T13:32:48;13.6;58.9
78514;SHT31;67814;51.976;5.810;2024-01-30T13:35:18;13.5;58.5
78514;SHT31;67814;51.976;5.810;2024-01-30T13:37:47;13.5;58.5
78514;SHT31;67814;51.976;5.810;2024-01-30T13:40:18;13.4;59.5
78514;SHT31;67814;51.976;5.810;2024-01-30T13:42:48;13.4;60.2
78514;SHT31;67814;51.976;5.810;2024-01-30T13:45:17;13.3;60.9
78514;SHT31;67814;51.976;5.810;2024-01-30T13:47:46;13.2;61.3
78514;SHT31;67814;51.976;5.810;2024-01-30T13:50:14;13.2;61.5
78514;SHT31;67814;51.976;5.810;2024-01-30T13:52:43;13.1;61.7
78514;SHT31;67814;51.976;5.810;2024-01-30T13:55:12;13.1;61.7
78514;SHT31;67814;51.976;5.810;2024-01-30T13:57:41;13.0;62.0
78514;SHT31;67814;51.976;5.810;2024-01-30T14:00:12;13.0;62.0
78514;SHT31;67814;51.976;5.810;2024-01-30T14:02:43;12.9;61.8
78514;SHT31;67814;51.976;5.810;2024-01-30T14:05:11;12.8;62.2
78514;SHT31;67814;51.976;5.810;2024-01-30T14:07:41;12.8;62.3
78514;SHT31;67814;51.976;5.810;2024-01-30T14:10:12;12.7;62.4
78514;SHT31;67814;51.976;5.810;2024-01-30T14:12:41;12.6;62.7
78514;SHT31;67814;51.976;5.810;2024-01-30T14:15:11;12.6;63.2
78514;SHT31;67814;51.976;5.810;2024-01-30T14:17:41;12.6;63.1
78514;SHT31;67814;51.976;5.810;2024-01-30T14:20:10;12.5;63.1
78514;SHT31;67814;51.976;5.810;2024-01-30T14:22:39;12.5;63.2
78514;SHT31;67814;51.976;5.810;2024-01-30T14:25:10;12.5;63.4
78514;SHT31;67814;51.976;5.810;2024-01-30T14:27:39;12.4;63.5
78514;SHT31;67814;51.976;5.810;2024-01-30T14:30:10;12.4;64.1
78514;SHT31;67814;51.976;5.810;2024-01-30T14:32:39;12.4;64.2
78514;SHT31;67814;51.976;5.810;2024-01-30T14:35:10;12.4;64.2
78514;SHT31;67814;51.976;5.810;2024-01-30T14:37:39;12.3;64.0
78514;SHT31;67814;51.976;5.810;2024-01-30T14:40:09;12.3;63.9
78514;SHT31;67814;51.976;5.810;2024-01-30T14:42:38;12.3;64.1
78514;SHT31;67814;51.976;5.810;2024-01-30T14:45:07;12.3;63.7
78514;SHT31;67814;51.976;5.810;2024-01-30T14:47:36;12.3;63.9
78514;SHT31;67814;51.976;5.810;2024-01-30T14:50:05;12.3;63.9
78514;SHT31;67814;51.976;5.810;2024-01-30T14:52:34;12.3;63.8
78514;SHT31;67814;51.976;5.810;2024-01-30T14:55:03;12.3;64.0
78514;SHT31;67814;51.976;5.810;2024-01-30T14:57:32;12.3;64.5
78514;SHT31;67814;51.976;5.810;2024-01-30T15:00:01;12.3;64.5
78514;SHT31;67814;51.976;5.810;2024-01-30T15:02:31;12.2;65.0
78514;SHT31;67814;51.976;5.810;2024-01-30T15:04:59;12.2;65.3
78514;SHT31;67814;51.976;5.810;2024-01-30T15:07:29;12.2;65.4
78514;SHT31;67814;51.976;5.810;2024-01-30T15:09:57;12.2;65.4
78514;SHT31;67814;51.976;5.810;2024-01-30T15:12:26;12.1;65.5
78514;SHT31;67814;51.976;5.810;2024-01-30T15:14:55;12.1;65.5
78514;SHT31;67814;51.976;5.810;2024-01-30T15:17:23;12.1;65.4
78514;SHT31;67814;51.976;5.810;2024-01-30T15:19:52;12.1;65.7
78514;SHT31;67814;51.976;5.810;2024-01-30T15:22:21;12.1;65.6
78514;SHT31;67814;51.976;5.810;2024-01-30T15:24:50;12.1;65.7
78514;SHT31;67814;51.976;5.810;2024-01-30T15:27:18;12.1;65.8
78514;SHT31;67814;51.976;5.810;2024-01-30T15:29:48;12.1;65.8
78514;SHT31;67814;51.976;5.810;2024-01-30T15:32:17;12.1;65.8
78514;SHT31;67814;51.976;5.810;2024-01-30T15:34:45;12.0;65.9
78514;SHT31;67814;51.976;5.810;2024-01-30T15:37:14;12.0;65.9
78514;SHT31;67814;51.976;5.810;2024-01-30T15:39:43;12.0;66.1
78514;SHT31;67814;51.976;5.810;2024-01-30T15:42:14;11.9;66.4
78514;SHT31;67814;51.976;5.810;2024-01-30T15:44:42;11.9;66.8
78514;SHT31;67814;51.976;5.810;2024-01-30T15:47:11;11.9;67.1
78514;SHT31;67814;51.976;5.810;2024-01-30T15:49:39;11.8;67.5
78514;SHT31;67814;51.976;5.810;2024-01-30T15:52:08;11.8;68.3
78514;SHT31;67814;51.976;5.810;2024-01-30T15:54:40;11.7;69.3
78514;SHT31;67814;51.976;5.810;2024-01-30T15:57:09;11.7;69.8
78514;SHT31;67814;51.976;5.810;2024-01-30T15:59:38;11.6;70.1
78514;SHT31;67814;51.976;5.810;2024-01-30T16:02:09;11.6;70.3
78514;SHT31;67814;51.976;5.810;2024-01-30T16:04:37;11.5;70.7
78514;SHT31;67814;51.976;5.810;2024-01-30T16:07:08;11.5;70.9
78514;SHT31;67814;51.976;5.810;2024-01-30T16:09:38;11.4;71.2
78514;SHT31;67814;51.976;5.810;2024-01-30T16:12:08;11.4;71.4
78514;SHT31;67814;51.976;5.810;2024-01-30T16:14:37;11.3;71.5
78514;SHT31;67814;51.976;5.810;2024-01-30T16:17:05;11.3;71.7
78514;SHT31;67814;51.976;5.810;2024-01-30T16:19:34;11.3;71.9
78514;SHT31;67814;51.976;5.810;2024-01-30T16:22:03;11.3;71.8
78514;SHT31;67814;51.976;5.810;2024-01-30T16:24:31;11.2;71.9